Time;durP1;ratioP1;P1;durP2;ratioP2;P2;SDS_P1;SDS_P2;PMS_P1;PMS_P2;Temp;Humidity;BMP_temperature;BMP_pressure;BME280_temperature;BME280_humidity;BME280_pressure;Samples;Min_cycle;Max_cycle;Signal;HPM_P1;HPM_P2
2020/12/28 14:52:36;;;;;;;2.35;1.92;;;;;;;5.46;59.69;93950.86;1770727;79;22585;-83
2020/12/28 14:55:03;;;;;;;3.47;2.12;;;;;;;5.43;60.02;93949.50;1750122;81;21107;-83
2020/12/28 14:57:29;;;;;;;3.08;2.10;;;;;;;5.39;60.30;93975.88;1751525;81;21130;-83
2020/12/28 14:59:55;;;;;;;3.08;2.40;;;;;;;5.35;59.86;93979.84;1747617;81;21134;-84
2020/12/28 15:02:22;;;;;;;3.52;2.40;;;;;;;5.32;60.06;93986.70;1748637;80;21664;-84
2020/12/28 15:04:48;;;;;;;3.40;2.47;;;;;;;5.28;60.69;93983.77;1751138;80;21122;-84
2020/12/28 15:07:14;;;;;;;2.80;1.90;;;;;;;5.25;60.21;93973.88;1770794;80;21117;-85
2020/12/28 15:09:40;;;;;;;3.00;2.22;;;;;;;5.24;60.39;93970.23;1755488;80;21487;-83
2020/12/28 15:12:06;;;;;;;3.52;2.15;;;;;;;5.23;60.85;93973.30;1760239;80;21716;-82
2020/12/28 15:14:33;;;;;;;2.87;1.90;;;;;;;5.22;60.34;93976.09;1783629;79;21126;-84
2020/12/28 15:16:58;;;;;;;2.55;1.65;;;;;;;5.21;60.59;93964.21;1786567;79;21119;-83
2020/12/28 15:19:25;;;;;;;2.80;2.12;;;;;;;5.18;60.61;93953.02;1783340;79;21416;-84
2020/12/28 15:21:51;;;;;;;2.10;1.62;;;;;;;5.17;60.59;93967.67;1784907;79;21141;-84
2020/12/28 15:24:17;;;;;;;3.15;1.98;;;;;;;5.15;60.09;93963.23;1786519;79;21132;-84
2020/12/28 15:26:44;;;;;;;3.27;1.90;;;;;;;5.19;60.70;93972.61;1785904;79;21347;-84
2020/12/28 15:29:10;;;;;;;2.77;2.10;;;;;;;5.19;60.28;93952.81;1786976;79;21113;-84
2020/12/28 15:31:36;;;;;;;3.00;1.90;;;;;;;5.24;60.28;93961.22;1754621;79;21137;-84
2020/12/28 15:34:02;;;;;;;3.30;1.77;;;;;;;5.26;59.91;93978.53;1786409;79;21744;-84
2020/12/28 15:36:30;;;;;;;1.72;1.55;;;;;;;5.30;59.94;93980.48;1765019;80;21093;-83
2020/12/28 15:38:56;;;;;;;3.60;2.08;;;;;;;5.33;60.04;94008.38;1764330;80;21144;-84
2020/12/28 15:41:22;;;;;;;3.33;2.02;;;;;;;5.37;60.23;94001.84;1760826;80;21141;-84
2020/12/28 15:43:48;;;;;;;4.15;2.30;;;;;;;5.38;59.65;93989.75;1786380;79;21196;-85
2020/12/28 15:46:15;;;;;;;3.95;2.62;;;;;;;5.40;60.12;94010.94;1772765;80;21244;-85
2020/12/28 15:52:46;;;;;;;2.58;1.70;;;;;;;5.42;59.49;93990.91;1735825;79;21102;-84
2020/12/28 15:55:12;;;;;;;2.35;1.85;;;;;;;5.42;59.67;93994.27;1722610;81;21129;-83
2020/12/28 15:57:39;;;;;;;2.10;1.50;;;;;;;5.43;59.99;94012.59;1721745;81;21102;-84
2020/12/28 16:00:05;;;;;;;3.22;2.30;;;;;;;5.41;59.45;94011.23;1712936;82;21257;-84
2020/12/28 16:06:18;;;;;;;4.50;2.70;;;;;;;5.39;59.99;94024.31;1749975;80;21216;-84
2020/12/28 16:36:41;;;;;;;5.90;3.87;;;;;;;5.12;60.73;93995.83;1730948;82;21087;-83
2020/12/28 16:39:19;;;;;;;6.53;3.80;;;;;;;5.11;60.88;93999.41;1764429;80;21082;-83
2020/12/28 16:41:45;;;;;;;5.03;3.22;;;;;;;5.09;61.09;94001.40;1763764;80;22100;-83
2020/12/28 16:44:12;;;;;;;4.42;2.60;;;;;;;5.07;61.01;94017.05;1740274;80;21118;-82
2020/12/28 16:46:38;;;;;;;5.03;3.05;;;;;;;5.11;60.98;94016.92;1769448;80;21232;-84
2020/12/28 16:49:04;;;;;;;5.47;2.85;;;;;;;5.12;60.77;94018.50;1743306;81;21128;-83
2020/12/28 16:51:30;;;;;;;4.45;2.87;;;;;;;5.16;60.85;94016.80;1749802;80;21459;-83
2020/12/28 16:53:56;;;;;;;16.23;6.55;;;;;;;5.22;60.97;93984.60;1732638;81;21278;-83
2020/12/28 16:56:23;;;;;;;3.30;2.27;;;;;;;5.20;61.25;93991.72;1738768;81;21131;-83
2020/12/28 16:58:49;;;;;;;3.50;2.87;;;;;;;5.26;60.88;94001.70;1735518;81;21135;-83
2020/12/28 17:01:17;;;;;;;4.22;2.80;;;;;;;5.27;61.19;93969.81;1724612;81;21132;-83
2020/12/28 17:03:43;;;;;;;3.92;2.67;;;;;;;5.27;60.75;93947.92;1732415;81;21088;-83
2020/12/28 17:06:10;;;;;;;3.35;2.33;;;;;;;5.29;60.58;93971.17;1737449;81;21120;-83
2020/12/28 17:08:36;;;;;;;4.37;2.30;;;;;;;5.32;60.43;93964.81;1743274;81;21092;-82
2020/12/28 17:11:02;;;;;;;4.05;2.30;;;;;;;5.33;60.58;93974.91;1705134;81;21226;-83
2020/12/28 17:13:28;;;;;;;2.77;1.92;;;;;;;5.34;60.72;93994.51;1734203;81;21158;-83
2020/12/28 17:15:54;;;;;;;3.00;2.02;;;;;;;5.35;60.38;93995.30;1731005;81;21118;-83
2020/12/28 17:18:21;;;;;;;5.47;3.42;;;;;;;5.39;60.33;93983.61;1733250;81;21141;-83
2020/12/28 17:20:48;;;;;;;2.95;2.12;;;;;;;5.39;60.63;93968.94;1706957;81;21134;-82
2020/12/28 17:23:14;;;;;;;5.17;3.25;;;;;;;5.42;60.55;93969.02;1737531;81;21266;-83
2020/12/28 17:25:40;;;;;;;3.58;2.20;;;;;;;5.42;60.70;93941.48;1736605;81;21120;-83
2020/12/28 17:28:06;;;;;;;7.05;3.45;;;;;;;5.44;60.99;93943.84;1712826;81;21237;-83
2020/12/28 17:30:32;;;;;;;7.33;5.42;;;;;;;5.42;61.21;93940.19;1708026;81;21107;-83
2020/12/28 17:32:58;;;;;;;3.70;2.00;;;;;;;5.40;61.37;93933.18;1733542;81;21519;-83
2020/12/28 17:35:24;;;;;;;4.92;3.05;;;;;;;5.42;61.42;93927.81;1739124;81;21412;-83
2020/12/28 17:37:51;;;;;;;3.75;2.58;;;;;;;5.42;61.80;93912.36;1733347;81;21144;-82
2020/12/28 17:40:17;;;;;;;9.33;6.12;;;;;;;5.40;62.02;93930.61;1731901;81;21177;-82
2020/12/28 17:42:43;;;;;;;8.38;4.60;;;;;;;5.45;62.09;93909.36;1706186;81;21147;-82
2020/12/28 17:45:09;;;;;;;5.83;3.60;;;;;;;5.48;62.17;93935.19;1738901;81;21099;-82
2020/12/28 17:47:35;;;;;;;3.33;1.82;;;;;;;5.50;62.33;93899.20;1741146;81;21151;-82
2020/12/28 17:50:04;;;;;;;6.97;4.08;;;;;;;5.49;62.36;93925.97;1736853;81;21140;-82
2020/12/28 17:52:30;;;;;;;13.50;8.53;;;;;;;5.51;62.50;93908.52;1742629;81;21152;-83
2020/12/28 17:55:02;;;;;;;8.88;6.15;;;;;;;5.53;62.66;93903.97;1735287;81;21333;-84
2020/12/28 17:57:29;;;;;;;8.10;4.43;;;;;;;5.56;62.79;93885.51;1737919;81;21250;-81
2020/12/28 17:59:55;;;;;;;3.83;2.30;;;;;;;5.61;62.88;93890.02;1758999;80;21460;-81
2020/12/28 18:02:23;;;;;;;5.12;2.92;;;;;;;5.64;62.82;93884.44;1690250;82;21130;-82
2020/12/28 18:04:49;;;;;;;3.12;2.05;;;;;;;5.69;62.86;93867.36;1735974;81;21409;-81
2020/12/28 18:07:15;;;;;;;6.00;3.77;;;;;;;5.73;62.82;93878.81;1738440;81;21103;-82
2020/12/28 18:09:41;;;;;;;5.12;3.15;;;;;;;5.77;62.72;93832.00;1733825;81;21131;-82
2020/12/28 18:12:07;;;;;;;3.92;2.58;;;;;;;5.80;62.75;93867.64;1739378;81;21163;-81
2020/12/28 18:14:33;;;;;;;5.15;2.75;;;;;;;5.84;62.73;93855.40;1744259;81;21100;-83
2020/12/28 18:16:59;;;;;;;3.75;2.50;;;;;;;5.91;62.56;93837.34;1739641;81;21108;-83
2020/12/28 18:19:25;;;;;;;6.55;3.95;;;;;;;5.94;62.37;93834.33;1758229;80;21378;-83
2020/12/28 18:21:51;;;;;;;3.80;3.08;;;;;;;5.97;62.59;93839.83;1731635;81;21119;-83
2020/12/28 18:24:18;;;;;;;9.28;5.15;;;;;;;5.98;62.31;93856.09;1734366;81;21140;-82
2020/12/28 18:26:44;;;;;;;10.32;5.58;;;;;;;6.00;62.25;93875.98;1735433;81;21157;-82
2020/12/28 18:29:11;;;;;;;5.00;3.02;;;;;;;6.04;61.99;93872.50;1734091;81;21265;-82
2020/12/28 18:31:37;;;;;;;8.13;4.35;;;;;;;6.07;62.11;93876.72;1731923;81;21143;-82
2020/12/28 18:34:03;;;;;;;8.90;4.78;;;;;;;6.09;62.26;93879.08;1738280;81;21257;-82
2020/12/28 18:36:29;;;;;;;8.65;5.12;;;;;;;6.11;62.30;93854.66;1736574;81;21132;-82
2020/12/28 18:38:55;;;;;;;7.67;4.37;;;;;;;6.14;62.44;93888.24;1735378;81;21123;-82
2020/12/28 18:41:22;;;;;;;8.75;4.83;;;;;;;6.15;62.29;93864.81;1731274;81;21160;-81
2020/12/28 18:43:48;;;;;;;12.07;6.95;;;;;;;6.21;62.46;93870.92;1735768;81;21323;-82
2020/12/28 18:46:14;;;;;;;9.65;5.28;;;;;;;6.20;62.46;93880.45;1734997;81;21157;-82
2020/12/28 18:48:40;;;;;;;5.47;3.17;;;;;;;6.21;62.57;93896.21;1707930;81;21147;-82
2020/12/28 18:51:12;;;;;;;7.58;4.05;;;;;;;6.24;62.42;93877.72;1737430;81;21242;-83
2020/12/28 18:53:40;;;;;;;3.30;1.70;;;;;;;6.27;62.28;93894.05;1709799;82;21112;-82
2020/12/28 18:56:08;;;;;;;11.68;4.70;;;;;;;6.30;62.24;93892.83;1742871;81;21577;-83
2020/12/28 18:58:35;;;;;;;6.67;4.03;;;;;;;6.31;62.11;93837.16;1732496;81;21151;-85
2020/12/28 19:01:01;;;;;;;8.38;4.17;;;;;;;6.31;62.58;93823.48;1731470;81;21149;-82
2020/12/28 19:03:27;;;;;;;6.92;3.25;;;;;;;6.31;62.20;93817.03;1734537;81;21127;-83
2020/12/28 19:05:55;;;;;;;6.55;3.02;;;;;;;6.31;62.33;93853.92;1730102;81;21139;-83
2020/12/28 19:08:21;;;;;;;11.95;5.90;;;;;;;6.30;62.63;93848.48;1751670;80;21131;-83
2020/12/28 19:10:47;;;;;;;4.20;2.33;;;;;;;6.29;62.34;93804.86;1724197;81;21872;-83
2020/12/28 19:13:13;;;;;;;7.00;4.05;;;;;;;6.29;62.55;93853.86;1732713;81;21610;-84
2020/12/28 19:15:39;;;;;;;6.72;2.95;;;;;;;6.30;62.68;93863.16;1731545;81;21634;-85
2020/12/28 19:18:06;;;;;;;2.42;1.75;;;;;;;6.29;62.33;93824.20;1731905;81;21337;-83
2020/12/28 19:20:32;;;;;;;2.87;1.67;;;;;;;6.29;62.79;93843.04;1705585;81;21129;-83
2020/12/28 19:22:58;;;;;;;2.67;1.80;;;;;;;6.35;62.41;93849.64;1740548;81;21104;-83
2020/12/28 19:25:24;;;;;;;4.55;2.98;;;;;;;6.36;62.82;93895.85;1731361;81;21412;-83
2020/12/28 19:27:50;;;;;;;6.35;3.15;;;;;;;6.35;62.58;93863.33;1730269;81;21139;-83
2020/12/28 19:30:16;;;;;;;2.15;1.92;;;;;;;6.37;62.63;93890.98;1734840;81;21098;-83
2020/12/28 19:32:43;;;;;;;2.20;1.50;;;;;;;6.36;63.04;93855.88;1709285;81;21168;-83
2020/12/28 19:35:09;;;;;;;3.02;1.75;;;;;;;6.34;62.94;93869.45;1729544;81;21132;-81
2020/12/28 19:37:35;;;;;;;3.27;1.90;;;;;;;6.35;62.84;93845.78;1729819;81;21103;-83
2020/12/28 19:40:07;;;;;;;2.25;1.60;;;;;;;6.37;62.88;93876.00;1731909;81;21136;-83
2020/12/28 19:42:36;;;;;;;2.87;2.20;;;;;;;6.39;63.02;93872.70;1727403;81;21143;-83
2020/12/28 19:45:05;;;;;;;2.52;1.92;;;;;;;6.37;62.55;93862.61;1731716;81;21174;-83
2020/12/28 19:47:31;;;;;;;9.40;4.20;;;;;;;6.35;62.65;93870.28;1735274;81;21142;-81
2020/12/28 19:49:58;;;;;;;3.98;1.72;;;;;;;6.31;62.70;93863.45;1731383;81;21273;-81
2020/12/28 19:52:24;;;;;;;8.73;4.40;;;;;;;6.30;62.37;93844.61;1721901;81;21129;-81
2020/12/28 19:54:50;;;;;;;3.33;2.17;;;;;;;6.32;62.69;93881.79;1733293;81;21126;-81
2020/12/28 19:57:16;;;;;;;6.28;3.20;;;;;;;6.32;62.07;93850.84;1726034;81;21105;-81
2020/12/28 19:59:44;;;;;;;4.35;2.58;;;;;;;6.34;62.69;93866.88;1730144;81;21140;-82
2020/12/28 20:02:12;;;;;;;2.85;2.00;;;;;;;6.33;62.68;93871.76;1680008;81;21132;-83
2020/12/28 20:04:39;;;;;;;6.97;3.67;;;;;;;6.35;62.60;93860.75;1731326;81;21219;-83
2020/12/28 20:07:06;;;;;;;3.05;1.70;;;;;;;6.35;62.80;93850.43;1738277;81;21109;-80
2020/12/28 20:09:32;;;;;;;3.95;2.70;;;;;;;6.33;62.84;93811.94;1730889;81;21171;-81
2020/12/28 20:11:58;;;;;;;3.72;2.00;;;;;;;6.34;62.99;93817.88;1732042;81;21562;-81
2020/12/28 20:14:24;;;;;;;4.97;2.87;;;;;;;6.37;62.16;93814.10;1734218;81;21136;-81
2020/12/28 20:16:50;;;;;;;3.60;2.00;;;;;;;6.42;62.63;93807.27;1734686;81;21147;-81
2020/12/28 20:19:16;;;;;;;4.50;2.50;;;;;;;6.47;62.64;93808.69;1712580;81;21139;-80
2020/12/28 20:21:42;;;;;;;4.33;2.85;;;;;;;6.47;62.86;93786.76;1733534;81;21935;-80
2020/12/28 20:24:09;;;;;;;6.30;3.17;;;;;;;6.47;62.61;93824.16;1701898;81;21127;-80
2020/12/28 20:26:35;;;;;;;2.27;1.60;;;;;;;6.48;62.68;93806.89;1730693;81;21346;-80
2020/12/28 20:29:01;;;;;;;2.02;1.67;;;;;;;6.50;61.82;93787.61;1727270;81;21123;-79
2020/12/28 20:31:27;;;;;;;2.10;1.37;;;;;;;6.56;62.46;93805.31;1719469;81;21329;-80
2020/12/28 20:33:53;;;;;;;2.72;1.72;;;;;;;6.60;61.82;93771.11;1724312;81;21151;-81
2020/12/28 20:36:26;;;;;;;2.72;1.70;;;;;;;6.68;61.98;93819.55;1721234;81;21487;-80
2020/12/28 20:38:57;;;;;;;5.37;2.77;;;;;;;6.71;62.00;93808.28;1727527;81;21127;-81
2020/12/28 20:41:23;;;;;;;6.50;3.35;;;;;;;6.72;61.98;93820.67;1728146;81;21084;-81
2020/12/28 20:43:49;;;;;;;7.75;4.67;;;;;;;6.72;62.09;93824.55;1734423;81;21120;-81
2020/12/28 20:46:15;;;;;;;4.05;1.85;;;;;;;6.70;62.15;93797.67;1729339;81;22529;-82
2020/12/28 20:48:42;;;;;;;1.50;1.30;;;;;;;6.66;62.36;93793.94;1736491;81;21167;-81
2020/12/28 20:51:08;;;;;;;3.92;2.52;;;;;;;6.61;62.35;93784.79;1725586;81;21135;-81
2020/12/28 20:53:34;;;;;;;7.12;3.70;;;;;;;6.57;62.35;93803.02;1738849;81;21148;-81
2020/12/28 20:56:01;;;;;;;5.30;3.33;;;;;;;6.56;62.48;93816.92;1734571;81;21155;-82
2020/12/28 20:58:27;;;;;;;2.70;1.90;;;;;;;6.58;62.66;93811.03;1734933;81;21381;-81
2020/12/28 21:00:53;;;;;;;2.60;1.70;;;;;;;6.57;62.20;93790.90;1724820;81;21507;-82
2020/12/28 21:03:20;;;;;;;2.35;1.47;;;;;;;6.60;62.64;93800.77;1729373;81;21350;-82
2020/12/28 21:05:49;;;;;;;2.62;1.82;;;;;;;6.62;61.63;93742.50;1698255;81;21685;-82
2020/12/28 21:08:16;;;;;;;4.10;2.00;;;;;;;6.70;62.27;93782.70;1728251;81;21266;-81
2020/12/28 21:10:47;;;;;;;2.08;1.87;;;;;;;6.70;62.09;93784.77;1726317;83;21417;-81
2020/12/28 21:13:18;;;;;;;2.27;1.50;;;;;;;6.68;62.26;93790.66;1730223;81;21305;-81
2020/12/28 21:15:44;;;;;;;1.77;1.40;;;;;;;6.66;62.21;93764.77;1728550;83;21341;-81
2020/12/28 21:18:10;;;;;;;2.92;1.90;;;;;;;6.66;62.46;93766.84;1729879;81;21128;-81
2020/12/28 21:20:36;;;;;;;2.50;1.35;;;;;;;6.59;62.66;93776.48;1728558;81;21163;-81
2020/12/28 21:23:04;;;;;;;2.62;2.00;;;;;;;6.56;62.45;93762.74;1730500;81;21123;-82
2020/12/28 21:25:30;;;;;;;4.30;2.22;;;;;;;6.55;62.82;93778.73;1730473;81;21361;-82
2020/12/28 21:27:57;;;;;;;2.40;1.85;;;;;;;6.56;62.65;93781.59;1728031;81;21149;-82
2020/12/28 21:30:25;;;;;;;2.85;2.08;;;;;;;6.59;63.12;93773.91;1728347;81;21187;-82
2020/12/28 21:32:51;;;;;;;3.77;2.33;;;;;;;6.56;62.95;93742.11;1728290;81;21159;-82
2020/12/28 21:35:18;;;;;;;3.15;2.00;;;;;;;6.56;62.86;93772.56;1729600;81;21123;-82
2020/12/28 21:37:44;;;;;;;4.55;2.60;;;;;;;6.58;62.62;93744.74;1727572;81;21143;-81
2020/12/28 21:40:10;;;;;;;3.60;2.33;;;;;;;6.62;62.94;93725.73;1727855;81;21290;-81
2020/12/28 21:42:37;;;;;;;3.70;2.02;;;;;;;6.65;62.57;93745.92;1729532;81;21119;-82
2020/12/28 21:45:04;;;;;;;5.10;2.85;;;;;;;6.73;62.66;93694.00;1728345;81;21143;-82
2020/12/28 21:47:31;;;;;;;2.83;2.00;;;;;;;6.75;62.74;93707.97;1722890;82;21261;-82
2020/12/28 21:49:57;;;;;;;2.95;1.40;;;;;;;6.71;62.93;93717.96;1728610;81;21357;-82
2020/12/28 21:52:23;;;;;;;3.15;2.20;;;;;;;6.83;62.35;93737.31;1727147;81;21135;-82
2020/12/28 21:54:49;;;;;;;3.05;2.20;;;;;;;6.89;62.80;93698.50;1728552;81;21396;-82
2020/12/28 21:57:15;;;;;;;2.25;1.80;;;;;;;6.92;62.76;93701.14;1728151;81;21130;-82
2020/12/28 21:59:41;;;;;;;2.27;1.65;;;;;;;6.92;62.74;93725.16;1727919;81;21413;-82
2020/12/28 22:02:25;;;;;;;2.67;1.75;;;;;;;6.96;62.74;93751.81;1727493;83;21397;-82
2020/12/28 22:04:52;;;;;;;4.42;2.52;;;;;;;7.02;62.49;93730.28;1732964;81;21107;-82
2020/12/28 22:07:18;;;;;;;2.70;2.25;;;;;;;7.07;62.56;93745.38;1743894;81;21438;-82
2020/12/28 22:09:45;;;;;;;2.22;1.65;;;;;;;7.10;62.50;93726.84;1737956;81;21134;-82
2020/12/28 22:12:11;;;;;;;3.75;2.67;;;;;;;7.12;62.30;93704.16;1711635;81;21243;-82
2020/12/28 22:14:37;;;;;;;1.72;1.40;;;;;;;7.11;62.35;93725.05;1714604;82;21162;-82
2020/12/28 22:17:07;;;;;;;1.20;1.10;;;;;;;7.13;62.66;93747.05;1706781;82;21270;-82
2020/12/28 22:19:34;;;;;;;1.60;1.30;;;;;;;7.13;62.37;93739.80;1716594;82;21129;-82
2020/12/28 22:22:00;;;;;;;2.67;1.00;;;;;;;7.15;62.21;93738.56;1724379;82;21160;-82
2020/12/28 22:24:26;;;;;;;1.62;1.52;;;;;;;7.16;62.36;93732.42;1722907;82;21116;-81
2020/12/28 22:26:53;;;;;;;1.75;1.40;;;;;;;7.16;62.48;93732.92;1727883;82;21399;-81
2020/12/28 22:29:21;;;;;;;1.35;1.22;;;;;;;7.14;62.52;93746.54;1706294;82;21382;-81
2020/12/28 22:31:47;;;;;;;1.30;1.20;;;;;;;7.15;62.70;93748.90;1722429;82;21129;-82
2020/12/28 22:34:13;;;;;;;8.38;5.00;;;;;;;7.12;62.59;93742.89;1724008;82;21132;-81
2020/12/28 22:36:39;;;;;;;2.00;1.37;;;;;;;7.06;62.90;93755.42;1717068;82;21152;-81
2020/12/28 22:39:06;;;;;;;1.52;1.30;;;;;;;7.00;62.91;93746.00;1716733;82;21135;-81
2020/12/28 22:41:32;;;;;;;1.98;1.37;;;;;;;7.01;62.97;93752.73;1724116;82;21144;-81
2020/12/28 22:43:58;;;;;;;1.67;1.27;;;;;;;7.06;62.83;93752.05;1718767;82;21349;-82
2020/12/28 22:46:24;;;;;;;1.50;1.15;;;;;;;7.05;63.32;93761.59;1720003;82;21139;-81
2020/12/28 22:48:50;;;;;;;1.77;1.20;;;;;;;6.98;63.25;93740.75;1716502;82;21094;-80
2020/12/28 22:51:17;;;;;;;2.37;0.90;;;;;;;7.00;63.34;93763.28;1699707;82;21104;-81
2020/12/28 22:53:43;;;;;;;1.67;1.10;;;;;;;7.01;63.47;93757.11;1720634;82;21430;-81
2020/12/28 22:56:09;;;;;;;2.55;1.52;;;;;;;7.02;63.59;93740.10;1719487;82;21337;-81
2020/12/28 22:58:35;;;;;;;2.08;1.32;;;;;;;7.01;63.20;93743.70;1724348;82;21116;-81
2020/12/28 23:01:02;;;;;;;1.30;1.10;;;;;;;7.10;63.51;93742.34;1721328;82;21148;-81
2020/12/28 23:03:29;;;;;;;2.75;1.98;;;;;;;7.15;63.29;93720.48;1714665;82;21388;-80
2020/12/28 23:05:55;;;;;;;2.40;1.40;;;;;;;7.26;63.12;93724.59;1724296;82;21397;-81
2020/12/28 23:08:22;;;;;;;1.17;1.07;;;;;;;7.28;63.18;93716.11;1732338;82;21162;-81
2020/12/28 23:10:48;;;;;;;3.47;2.00;;;;;;;7.27;61.99;93695.95;1730720;82;21516;-81
2020/12/28 23:13:14;;;;;;;2.02;1.40;;;;;;;7.32;62.95;93707.70;1734260;82;21132;-81
2020/12/28 23:15:41;;;;;;;2.20;1.40;;;;;;;7.32;63.02;93696.56;1730985;82;21102;-81
2020/12/28 23:18:07;;;;;;;3.27;1.92;;;;;;;7.29;63.11;93692.64;1722493;82;21106;-80
2020/12/28 23:20:33;;;;;;;1.40;1.30;;;;;;;7.26;63.39;93687.15;1729617;82;21141;-81
2020/12/28 23:23:04;;;;;;;2.22;1.32;;;;;;;7.18;63.39;93672.80;1731066;82;21108;-82
2020/12/28 23:25:29;;;;;;;1.90;1.40;;;;;;;7.16;63.39;93679.48;1736863;82;21123;-82
2020/12/28 23:27:55;;;;;;;2.58;1.90;;;;;;;7.14;63.14;93656.95;1732786;82;21129;-82
2020/12/28 23:30:21;;;;;;;1.87;1.30;;;;;;;7.20;63.48;93659.94;1708436;82;21171;-82
2020/12/28 23:32:47;;;;;;;1.45;1.27;;;;;;;7.19;63.27;93640.80;1722315;82;21117;-82
2020/12/28 23:35:14;;;;;;;0.93;0.70;;;;;;;7.18;63.48;93658.59;1723663;82;21672;-82
2020/12/28 23:37:43;;;;;;;1.25;0.98;;;;;;;7.12;63.02;93629.28;1728797;82;21116;-82
2020/12/28 23:40:09;;;;;;;1.27;0.85;;;;;;;7.13;63.59;93661.83;1735406;82;21132;-82
2020/12/28 23:42:35;;;;;;;1.02;0.93;;;;;;;7.18;63.51;93658.59;1724044;82;21140;-82
2020/12/28 23:45:09;;;;;;;2.37;1.30;;;;;;;7.27;63.59;93648.69;1733034;82;21135;-82
2020/12/28 23:47:42;;;;;;;3.25;1.82;;;;;;;7.32;63.43;93626.82;1733753;82;21155;-82
2020/12/28 23:50:09;;;;;;;2.22;1.40;;;;;;;7.34;63.30;93635.94;1734440;82;21140;-82
2020/12/28 23:52:35;;;;;;;2.65;1.50;;;;;;;7.36;63.39;93633.12;1724369;82;21144;-82
2020/12/28 23:55:01;;;;;;;2.02;1.55;;;;;;;7.34;63.39;93638.52;1731808;82;21156;-82
2020/12/28 23:57:27;;;;;;;1.65;1.27;;;;;;;7.30;63.68;93621.89;1725112;82;21103;-82
2020/12/28 23:59:53;;;;;;;2.05;1.20;;;;;;;7.30;63.68;93612.06;1723211;82;21398;-82
